Time;durP1;ratioP1;P1;durP2;ratioP2;P2;SDS_P1;SDS_P2;PMS_P1;PMS_P2;Temp;Humidity;BMP_temperature;BMP_pressure;BME280_temperature;BME280_humidity;BME280_pressure;Samples;Min_cycle;Max_cycle;Signal;HPM_P1;HPM_P2
2022/01/11 00:02:03;;;;;;;70.32;27.38;;;0.10;99.90;;;;;;5022016;28;20064;-73
2022/01/11 00:04:30;;;;;;;62.58;27.15;;;0.10;99.90;;;;;;5046312;28;20086;-74
2022/01/11 00:06:57;;;;;;;79.38;26.65;;;0.10;99.90;;;;;;5043422;28;20151;-74
2022/01/11 00:09:32;;;;;;;62.67;27.70;;;0.10;99.90;;;;;;5042763;28;20053;-73
2022/01/11 00:11:58;;;;;;;70.28;26.33;;;0.10;99.90;;;;;;5041943;28;20048;-73
2022/01/11 00:14:24;;;;;;;75.13;27.52;;;0.10;99.90;;;;;;5027383;28;20043;-74
2022/01/11 00:16:50;;;;;;;64.82;28.52;;;0.10;99.90;;;;;;5038319;28;20080;-73
2022/01/11 00:19:15;;;;;;;68.70;27.30;;;0.00;99.90;;;;;;5043874;28;20403;-74
2022/01/11 00:21:47;;;;;;;109.85;28.63;;;0.10;99.90;;;;;;5042197;28;20033;-73
2022/01/11 00:24:29;;;;;;;73.38;26.00;;;0.10;99.90;;;;;;5044922;28;20422;-73
2022/01/11 00:27:00;;;;;;;80.43;27.17;;;0.00;99.90;;;;;;5029628;28;20384;-74
2022/01/11 00:29:26;;;;;;;67.93;26.02;;;0.00;99.90;;;;;;5042157;28;20503;-73
2022/01/11 00:31:53;;;;;;;83.82;27.73;;;0.10;99.90;;;;;;5041850;28;20040;-73
2022/01/11 00:34:20;;;;;;;87.80;27.30;;;0.00;99.90;;;;;;5027727;28;20487;-74
2022/01/11 00:36:46;;;;;;;83.38;26.42;;;0.00;99.90;;;;;;5043439;28;20485;-73
2022/01/11 00:39:13;;;;;;;83.30;29.15;;;0.00;99.90;;;;;;5044278;28;20063;-73
2022/01/11 00:41:43;;;;;;;119.43;28.00;;;0.10;99.90;;;;;;5046007;28;20585;-73
2022/01/11 00:44:10;;;;;;;89.38;28.08;;;0.10;99.90;;;;;;5043924;28;20133;-74
2022/01/11 00:46:36;;;;;;;83.60;30.83;;;0.00;99.90;;;;;;5045425;28;20037;-74
2022/01/11 00:49:02;;;;;;;59.78;28.20;;;0.00;99.90;;;;;;5044325;28;20111;-74
2022/01/11 00:51:28;;;;;;;54.42;28.10;;;0.00;99.90;;;;;;5044245;28;20486;-74
2022/01/11 00:53:54;;;;;;;90.07;29.42;;;0.00;99.90;;;;;;5027089;28;20065;-74
2022/01/11 00:56:19;;;;;;;83.80;28.40;;;0.00;99.90;;;;;;5042308;28;20114;-74
2022/01/11 00:58:47;;;;;;;74.10;28.90;;;0.00;99.90;;;;;;5059561;28;20052;-74
2022/01/11 01:01:12;;;;;;;67.22;28.70;;;0.00;99.90;;;;;;5045022;28;20449;-75
2022/01/11 01:03:38;;;;;;;64.10;29.52;;;0.00;99.90;;;;;;5040050;28;20076;-74
2022/01/11 01:06:04;;;;;;;84.07;30.55;;;0.00;99.90;;;;;;5025300;28;20800;-74
2022/01/11 01:08:30;;;;;;;71.10;30.25;;;0.00;99.90;;;;;;5042001;28;20458;-74
2022/01/11 01:10:56;;;;;;;63.10;30.20;;;0.00;99.90;;;;;;5049188;28;20041;-74
2022/01/11 01:13:25;;;;;;;73.00;29.40;;;0.00;99.90;;;;;;5043218;28;20033;-74
2022/01/11 01:15:53;;;;;;;68.40;29.52;;;0.00;99.90;;;;;;5044360;28;20423;-74
2022/01/11 01:18:22;;;;;;;78.40;31.02;;;0.00;99.90;;;;;;5040149;28;20495;-74
2022/01/11 01:20:52;;;;;;;91.50;29.67;;;0.00;99.90;;;;;;5041155;28;20041;-75
2022/01/11 01:23:18;;;;;;;166.40;34.60;;;0.00;99.90;;;;;;5041545;28;20521;-74
2022/01/11 01:25:45;;;;;;;81.68;30.20;;;0.00;99.90;;;;;;5044139;28;20510;-74
2022/01/11 01:28:12;;;;;;;113.90;33.03;;;0.00;99.90;;;;;;5043156;28;20045;-73
2022/01/11 01:30:38;;;;;;;79.30;30.55;;;-0.10;99.90;;;;;;5042557;28;20040;-73
2022/01/11 01:33:05;;;;;;;85.40;32.15;;;0.00;99.90;;;;;;5039980;28;20459;-74
2022/01/11 01:35:39;;;;;;;106.32;31.27;;;-0.10;99.90;;;;;;5040234;28;20114;-74
2022/01/11 01:38:05;;;;;;;102.82;31.30;;;-0.10;99.90;;;;;;5042528;28;20041;-74
2022/01/11 01:40:37;;;;;;;125.18;34.10;;;-0.10;99.90;;;;;;5041467;28;20036;-74
2022/01/11 01:43:05;;;;;;;74.53;31.15;;;-0.10;99.90;;;;;;5042156;28;20067;-74
2022/01/11 01:45:31;;;;;;;135.40;34.47;;;-0.10;99.90;;;;;;5042877;28;20083;-74
2022/01/11 01:47:58;;;;;;;154.82;36.85;;;-0.10;99.90;;;;;;5044213;28;20613;-74
2022/01/11 01:50:27;;;;;;;99.72;33.55;;;-0.10;99.90;;;;;;5026958;28;20099;-74
2022/01/11 01:52:54;;;;;;;114.43;33.58;;;-0.10;99.90;;;;;;5047483;28;20117;-74
2022/01/11 01:55:20;;;;;;;76.10;32.80;;;-0.10;99.90;;;;;;5048367;28;20491;-74
2022/01/11 01:57:46;;;;;;;83.68;33.22;;;0.00;99.90;;;;;;5046278;28;20419;-74
2022/01/11 02:00:12;;;;;;;67.35;33.53;;;-0.10;99.90;;;;;;5041653;28;20032;-75
2022/01/11 02:02:39;;;;;;;110.28;35.28;;;0.00;99.90;;;;;;5042997;28;21622;-73
2022/01/11 02:05:06;;;;;;;88.85;33.05;;;0.00;99.90;;;;;;5039952;28;20115;-74
2022/01/11 02:07:33;;;;;;;75.47;32.40;;;0.00;99.90;;;;;;5042119;28;20449;-73
2022/01/11 02:10:01;;;;;;;107.78;35.03;;;0.00;99.90;;;;;;5046440;28;20376;-73
2022/01/11 02:12:28;;;;;;;139.60;35.47;;;0.00;99.90;;;;;;5060122;28;20044;-73
2022/01/11 02:14:53;;;;;;;186.63;36.05;;;0.10;99.90;;;;;;5044177;28;20041;-73
2022/01/11 02:17:19;;;;;;;247.93;42.47;;;0.10;99.90;;;;;;5022673;28;20037;-74
2022/01/11 02:19:45;;;;;;;115.75;34.78;;;0.00;99.90;;;;;;5039785;28;20045;-74
2022/01/11 02:22:11;;;;;;;197.55;38.20;;;0.00;99.90;;;;;;5040651;28;20394;-74
2022/01/11 02:24:36;;;;;;;162.65;38.20;;;0.00;99.90;;;;;;5037715;28;20044;-74
2022/01/11 02:27:03;;;;;;;124.07;35.72;;;0.10;99.90;;;;;;5039894;28;20533;-74
2022/01/11 02:29:28;;;;;;;183.93;36.88;;;0.10;99.90;;;;;;5041333;28;20049;-74
2022/01/11 02:31:54;;;;;;;110.47;33.97;;;0.20;99.90;;;;;;5040206;28;20479;-73
2022/01/11 02:34:20;;;;;;;117.03;36.03;;;0.10;99.90;;;;;;5037759;28;20545;-74
2022/01/11 02:36:45;;;;;;;117.80;34.40;;;0.20;99.90;;;;;;5044178;28;20060;-74
2022/01/11 02:39:11;;;;;;;124.70;35.10;;;0.20;99.90;;;;;;5043921;28;20059;-74
2022/01/11 02:41:49;;;;;;;148.98;34.35;;;0.20;99.90;;;;;;5041136;28;20491;-74
2022/01/11 02:44:15;;;;;;;121.25;35.45;;;0.20;99.90;;;;;;5039898;28;20033;-74
2022/01/11 02:46:40;;;;;;;123.82;35.38;;;0.20;99.90;;;;;;5040114;28;20605;-74
2022/01/11 02:49:06;;;;;;;140.90;35.92;;;0.20;99.90;;;;;;5043263;28;20037;-74
2022/01/11 02:51:31;;;;;;;145.65;33.38;;;0.20;99.90;;;;;;5042038;28;20722;-74
2022/01/11 02:53:59;;;;;;;130.65;32.65;;;0.20;99.90;;;;;;5026455;28;20033;-73
2022/01/11 02:56:25;;;;;;;142.80;32.38;;;0.20;99.90;;;;;;5046939;28;20061;-73
2022/01/11 02:58:51;;;;;;;138.43;33.15;;;0.20;99.90;;;;;;5042934;28;20037;-73
2022/01/11 03:01:17;;;;;;;137.45;34.28;;;0.20;99.90;;;;;;5046156;28;20533;-73
2022/01/11 03:03:43;;;;;;;129.85;32.85;;;0.20;99.90;;;;;;5042601;28;20415;-74
2022/01/11 03:06:08;;;;;;;142.82;32.20;;;0.20;99.90;;;;;;5044297;28;20056;-74
2022/01/11 03:08:42;;;;;;;155.07;34.25;;;0.20;99.90;;;;;;5045429;28;20123;-74
2022/01/11 03:11:08;;;;;;;114.43;31.50;;;0.20;99.90;;;;;;5042306;28;20037;-74
2022/01/11 03:13:35;;;;;;;104.35;30.80;;;0.20;99.90;;;;;;5043703;28;20428;-74
2022/01/11 03:16:02;;;;;;;94.05;30.85;;;0.20;99.90;;;;;;5042105;28;20036;-74
2022/01/11 03:18:28;;;;;;;88.32;32.35;;;0.20;99.90;;;;;;5047059;28;20053;-74
2022/01/11 03:20:54;;;;;;;86.47;31.40;;;0.20;99.90;;;;;;5026947;28;20399;-74
2022/01/11 03:23:20;;;;;;;100.45;32.85;;;0.20;99.90;;;;;;5044758;28;20403;-74
2022/01/11 03:25:48;;;;;;;139.00;37.38;;;0.20;99.90;;;;;;5043799;28;20186;-74
2022/01/11 03:28:13;;;;;;;148.48;35.38;;;0.20;99.90;;;;;;5042661;28;20053;-74
2022/01/11 03:30:39;;;;;;;98.15;35.47;;;0.20;99.90;;;;;;5042337;28;20394;-74
2022/01/11 03:33:08;;;;;;;120.07;36.03;;;0.20;99.90;;;;;;5043350;28;20558;-74
2022/01/11 03:35:36;;;;;;;132.23;39.60;;;0.20;99.90;;;;;;5042327;28;20159;-74
2022/01/11 03:38:04;;;;;;;135.75;39.28;;;0.20;99.90;;;;;;5047900;28;20040;-74
2022/01/11 03:40:30;;;;;;;122.28;38.53;;;0.20;99.90;;;;;;5042802;28;20033;-74
2022/01/11 03:42:56;;;;;;;122.57;40.03;;;0.10;99.90;;;;;;5044030;28;20052;-74
2022/01/11 03:45:22;;;;;;;118.40;39.67;;;0.10;99.90;;;;;;5025224;28;20040;-74
2022/01/11 03:47:49;;;;;;;126.30;41.13;;;0.10;99.90;;;;;;5060246;28;20040;-74
2022/01/11 03:50:14;;;;;;;147.38;41.20;;;0.20;99.90;;;;;;5044885;28;20033;-74
2022/01/11 03:52:40;;;;;;;121.90;41.35;;;0.20;99.90;;;;;;5043722;28;20048;-74
2022/01/11 03:55:20;;;;;;;115.35;40.75;;;0.20;99.90;;;;;;5046362;28;20036;-74
2022/01/11 03:57:48;;;;;;;127.03;43.28;;;0.20;99.90;;;;;;5045095;28;20490;-74
2022/01/11 04:00:19;;;;;;;132.48;43.03;;;0.20;99.90;;;;;;5043984;28;20446;-74
2022/01/11 04:02:45;;;;;;;154.40;46.25;;;0.20;99.90;;;;;;5038147;28;20388;-74
2022/01/11 04:05:13;;;;;;;130.18;44.55;;;0.20;99.90;;;;;;5043813;28;20036;-74
2022/01/11 04:07:40;;;;;;;147.35;46.58;;;0.20;99.90;;;;;;5043813;28;20514;-74
2022/01/11 04:10:08;;;;;;;175.88;47.72;;;0.20;99.90;;;;;;5043846;28;20885;-73
2022/01/11 04:12:34;;;;;;;188.82;49.33;;;0.20;99.90;;;;;;5045263;28;20394;-73
2022/01/11 04:15:00;;;;;;;197.18;49.88;;;0.20;99.90;;;;;;5043648;28;20037;-73
2022/01/11 04:17:26;;;;;;;182.43;48.40;;;0.20;99.90;;;;;;5042348;28;20037;-73
2022/01/11 04:19:52;;;;;;;182.63;49.38;;;0.30;99.90;;;;;;5041645;28;20037;-73
2022/01/11 04:22:19;;;;;;;147.82;48.08;;;0.20;99.90;;;;;;5043592;28;20043;-73
2022/01/11 04:24:45;;;;;;;199.45;49.53;;;0.30;99.90;;;;;;5043100;28;20386;-73
2022/01/11 04:27:11;;;;;;;195.73;51.58;;;0.30;99.90;;;;;;5044119;28;20048;-73
2022/01/11 04:29:36;;;;;;;151.05;48.92;;;0.20;99.90;;;;;;5043101;28;20041;-73
2022/01/11 04:32:03;;;;;;;209.60;52.03;;;0.30;99.90;;;;;;5039616;28;20041;-73
2022/01/11 04:34:29;;;;;;;196.20;52.53;;;0.30;99.90;;;;;;5043502;28;20601;-73
2022/01/11 04:36:55;;;;;;;187.68;52.58;;;0.30;99.90;;;;;;5045243;28;20053;-73
2022/01/11 04:39:22;;;;;;;174.68;51.38;;;0.30;99.90;;;;;;5044248;28;20570;-73
2022/01/11 04:41:49;;;;;;;174.18;52.20;;;0.40;99.90;;;;;;5044466;28;20518;-73
2022/01/11 04:44:15;;;;;;;172.85;51.45;;;0.30;99.90;;;;;;5043643;28;20056;-73
2022/01/11 04:46:40;;;;;;;140.25;47.70;;;0.40;99.90;;;;;;5043601;28;20143;-73
2022/01/11 04:49:07;;;;;;;168.07;51.28;;;0.30;99.90;;;;;;5044118;28;20123;-73
2022/01/11 04:51:34;;;;;;;162.98;48.83;;;0.30;99.90;;;;;;5025706;28;20510;-73
2022/01/11 04:54:00;;;;;;;132.52;48.30;;;0.40;99.90;;;;;;5043182;28;20037;-73
2022/01/11 04:56:26;;;;;;;130.15;47.20;;;0.30;99.90;;;;;;5042206;28;20406;-73
2022/01/11 04:58:52;;;;;;;151.45;50.00;;;0.30;99.90;;;;;;5043172;28;20048;-73
2022/01/11 05:01:17;;;;;;;158.85;51.25;;;0.30;99.90;;;;;;5041832;28;20044;-73
2022/01/11 05:03:43;;;;;;;164.32;51.88;;;0.30;99.90;;;;;;5043622;28;20056;-73
2022/01/11 05:06:10;;;;;;;170.68;51.22;;;0.30;99.90;;;;;;5040818;28;20403;-73
2022/01/11 05:08:36;;;;;;;159.13;50.25;;;0.30;99.90;;;;;;5044182;28;20383;-73
2022/01/11 05:11:01;;;;;;;145.23;49.22;;;0.30;99.90;;;;;;5043942;28;20044;-73
2022/01/11 05:13:27;;;;;;;145.43;49.88;;;0.30;99.90;;;;;;5043975;28;20036;-73
2022/01/11 05:15:53;;;;;;;147.73;51.00;;;0.30;99.90;;;;;;5042679;28;20072;-73
2022/01/11 05:18:19;;;;;;;156.63;51.40;;;0.30;99.90;;;;;;5041673;28;20033;-73
2022/01/11 05:20:46;;;;;;;183.95;52.20;;;0.30;99.90;;;;;;5040316;28;20044;-73
2022/01/11 05:23:14;;;;;;;142.20;50.38;;;0.30;99.90;;;;;;5044558;28;20400;-73
2022/01/11 05:25:41;;;;;;;176.00;51.88;;;0.40;99.90;;;;;;5023446;28;20443;-73
2022/01/11 05:28:06;;;;;;;157.48;51.63;;;0.30;99.90;;;;;;5040771;28;20376;-73
2022/01/11 05:30:32;;;;;;;138.13;49.20;;;0.30;99.90;;;;;;5058651;28;20049;-73
2022/01/11 05:32:58;;;;;;;137.02;47.72;;;0.30;99.90;;;;;;5024789;28;20484;-73
2022/01/11 05:35:25;;;;;;;140.98;49.92;;;0.30;99.90;;;;;;5042263;28;20037;-73
2022/01/11 05:37:52;;;;;;;171.65;51.50;;;0.30;99.90;;;;;;5041008;28;20620;-73
2022/01/11 05:40:18;;;;;;;138.65;50.75;;;0.40;99.90;;;;;;5057760;28;20072;-73
2022/01/11 05:42:45;;;;;;;145.70;51.17;;;0.40;99.90;;;;;;5024222;28;20048;-73
2022/01/11 05:45:13;;;;;;;142.05;50.53;;;0.40;99.90;;;;;;5040602;28;20163;-73
2022/01/11 05:47:39;;;;;;;138.13;47.40;;;0.40;99.90;;;;;;5041098;28;20040;-73
2022/01/11 05:50:08;;;;;;;133.82;48.08;;;0.40;99.90;;;;;;5040158;28;22004;-73
2022/01/11 05:52:35;;;;;;;132.48;46.83;;;0.40;99.90;;;;;;5041846;28;20214;-73
2022/01/11 05:55:03;;;;;;;122.60;46.25;;;0.30;99.90;;;;;;5024434;28;20045;-73
2022/01/11 05:57:29;;;;;;;128.63;46.13;;;0.30;99.90;;;;;;5042339;28;20040;-73
2022/01/11 05:59:54;;;;;;;126.00;46.70;;;0.30;99.90;;;;;;5040957;28;20479;-73
2022/01/11 06:02:20;;;;;;;137.90;48.38;;;0.30;99.90;;;;;;5040606;28;20502;-73
2022/01/11 06:04:46;;;;;;;131.82;47.95;;;0.40;99.90;;;;;;5044859;28;20045;-73
2022/01/11 06:07:11;;;;;;;134.35;47.78;;;0.40;99.90;;;;;;5039480;28;20036;-73
2022/01/11 06:09:38;;;;;;;128.63;45.42;;;0.30;99.90;;;;;;5039098;28;20053;-73
2022/01/11 06:12:04;;;;;;;125.38;46.30;;;0.30;99.90;;;;;;5043451;28;20033;-73
2022/01/11 06:14:29;;;;;;;135.35;46.58;;;0.30;99.90;;;;;;5046116;28;20053;-73
2022/01/11 06:16:55;;;;;;;125.05;44.95;;;0.30;99.90;;;;;;5043788;28;20048;-73
2022/01/11 06:19:21;;;;;;;137.98;46.30;;;0.30;99.90;;;;;;5043313;28;20029;-73
2022/01/11 06:21:47;;;;;;;118.63;43.53;;;0.30;99.90;;;;;;5057958;28;20040;-73
2022/01/11 06:24:13;;;;;;;106.53;42.85;;;0.30;99.90;;;;;;5044448;28;20407;-73
2022/01/11 06:26:39;;;;;;;107.65;41.72;;;0.30;99.90;;;;;;5043444;28;20448;-73
2022/01/11 06:29:04;;;;;;;114.90;41.20;;;0.20;99.90;;;;;;5025603;28;20045;-73
2022/01/11 06:31:32;;;;;;;102.30;39.65;;;0.30;99.90;;;;;;5059752;28;20044;-73
2022/01/11 06:33:58;;;;;;;99.10;38.35;;;0.20;99.90;;;;;;5043687;28;20041;-73
2022/01/11 06:36:24;;;;;;;87.68;36.83;;;0.20;99.90;;;;;;5027001;28;20044;-74
2022/01/11 06:38:49;;;;;;;104.05;37.60;;;0.20;99.90;;;;;;5041237;28;20655;-73
2022/01/11 06:41:15;;;;;;;82.63;35.35;;;0.20;99.90;;;;;;5042159;28;20037;-73
2022/01/11 06:43:41;;;;;;;83.03;34.83;;;0.20;99.90;;;;;;5035655;28;20041;-73
2022/01/11 06:46:07;;;;;;;81.20;33.63;;;0.20;99.90;;;;;;5024705;28;20136;-73
2022/01/11 06:48:33;;;;;;;87.50;35.17;;;0.20;99.90;;;;;;5039659;28;20069;-73
2022/01/11 06:50:59;;;;;;;79.18;31.95;;;0.20;99.90;;;;;;5038967;28;20094;-73
2022/01/11 06:53:25;;;;;;;83.28;33.40;;;0.20;99.90;;;;;;5042978;28;20041;-73
2022/01/11 06:55:53;;;;;;;71.78;32.92;;;0.20;99.90;;;;;;5042405;28;20043;-73
2022/01/11 06:58:19;;;;;;;73.15;33.20;;;0.20;99.90;;;;;;5039136;28;20044;-73
2022/01/11 07:00:45;;;;;;;83.97;33.17;;;0.20;99.90;;;;;;5042459;28;20101;-72
2022/01/11 07:03:11;;;;;;;69.93;32.00;;;0.10;99.90;;;;;;5041183;28;20029;-73
2022/01/11 07:05:37;;;;;;;69.93;32.13;;;0.20;99.90;;;;;;5039576;28;20037;-74
2022/01/11 07:08:03;;;;;;;80.28;31.85;;;0.20;99.90;;;;;;5025811;28;20097;-74
2022/01/11 07:10:29;;;;;;;74.85;32.03;;;0.10;99.90;;;;;;5040844;28;20167;-72
2022/01/11 07:12:55;;;;;;;71.05;30.77;;;0.10;99.90;;;;;;5040095;28;20136;-73
2022/01/11 07:15:21;;;;;;;73.55;30.88;;;0.10;99.90;;;;;;5065310;22;20045;-71
2022/01/11 07:17:48;;;;;;;68.25;31.00;;;0.10;99.90;;;;;;5041798;28;20049;-70
2022/01/11 07:20:13;;;;;;;65.53;29.67;;;0.10;99.90;;;;;;5024770;28;20065;-72
2022/01/11 07:22:39;;;;;;;64.90;29.00;;;0.10;99.90;;;;;;5033221;28;20064;-72
2022/01/11 07:25:06;;;;;;;62.78;29.13;;;0.10;99.90;;;;;;5030924;28;20098;-71
2022/01/11 07:27:34;;;;;;;62.92;28.27;;;0.10;99.90;;;;;;5025782;28;20132;-72
2022/01/11 07:30:01;;;;;;;63.85;27.70;;;0.10;99.90;;;;;;5029901;28;20033;-71
2022/01/11 07:32:26;;;;;;;62.22;27.40;;;0.10;99.90;;;;;;5025033;28;20073;-71
2022/01/11 07:34:52;;;;;;;60.47;27.35;;;0.10;99.90;;;;;;5027319;28;20128;-71
2022/01/11 07:37:18;;;;;;;59.08;27.77;;;0.10;99.90;;;;;;5028188;28;20095;-71
2022/01/11 07:39:44;;;;;;;53.05;26.83;;;0.10;99.90;;;;;;5012997;28;20033;-71
2022/01/11 07:42:10;;;;;;;50.58;25.92;;;0.00;99.90;;;;;;5026804;28;20041;-71
2022/01/11 07:44:35;;;;;;;53.95;26.23;;;0.10;99.90;;;;;;5029929;28;20029;-71
2022/01/11 07:47:03;;;;;;;55.72;26.77;;;0.10;99.90;;;;;;5028530;28;20079;-71
2022/01/11 07:49:28;;;;;;;51.97;25.83;;;0.10;99.90;;;;;;5031960;28;20041;-71
2022/01/11 07:51:54;;;;;;;50.28;26.30;;;0.10;99.90;;;;;;5029828;28;20043;-72
2022/01/11 07:54:21;;;;;;;53.55;25.13;;;0.10;99.90;;;;;;5032761;28;20124;-71
2022/01/11 07:56:47;;;;;;;46.38;24.55;;;0.10;99.90;;;;;;5031312;28;20052;-71
2022/01/11 07:59:13;;;;;;;42.53;23.35;;;0.20;99.90;;;;;;5029573;28;20041;-71
2022/01/11 08:01:39;;;;;;;44.80;23.77;;;0.20;99.90;;;;;;5031603;28;20044;-71
2022/01/11 08:04:05;;;;;;;47.17;23.63;;;0.30;99.90;;;;;;5025474;28;20041;-71
2022/01/11 08:06:32;;;;;;;44.15;23.55;;;0.20;99.90;;;;;;5027018;28;20047;-71
2022/01/11 08:09:00;;;;;;;41.15;23.45;;;0.20;99.90;;;;;;5009893;28;20108;-72
2022/01/11 08:11:26;;;;;;;42.60;23.45;;;0.20;99.90;;;;;;5028850;28;20067;-71
2022/01/11 08:13:52;;;;;;;43.72;23.63;;;0.20;99.90;;;;;;5047023;28;20403;-71
2022/01/11 08:16:17;;;;;;;41.80;23.05;;;0.20;99.90;;;;;;5030854;28;20053;-72
2022/01/11 08:18:43;;;;;;;39.67;23.67;;;0.30;99.90;;;;;;5030590;28;20087;-72
2022/01/11 08:21:09;;;;;;;37.10;21.92;;;0.30;99.90;;;;;;5030315;28;20041;-71
2022/01/11 08:23:34;;;;;;;38.45;21.85;;;0.30;99.90;;;;;;5025600;28;20043;-71
2022/01/11 08:26:00;;;;;;;40.00;21.08;;;0.30;99.90;;;;;;5031457;28;20045;-72
2022/01/11 08:28:26;;;;;;;39.55;21.65;;;0.40;99.90;;;;;;5023922;28;20052;-71
2022/01/11 08:30:52;;;;;;;37.45;21.42;;;0.30;99.90;;;;;;5026252;28;20553;-72
2022/01/11 08:33:19;;;;;;;36.15;22.45;;;0.40;99.90;;;;;;5029403;28;20084;-70
2022/01/11 08:35:44;;;;;;;35.28;20.73;;;0.40;99.90;;;;;;5029884;28;20044;-70
2022/01/11 08:38:11;;;;;;;36.33;20.98;;;0.40;99.90;;;;;;5025861;28;20118;-70
2022/01/11 08:40:36;;;;;;;36.30;21.95;;;0.50;99.90;;;;;;5027791;28;20052;-71
2022/01/11 08:43:04;;;;;;;38.25;22.15;;;0.50;99.90;;;;;;5028430;28;20400;-71
2022/01/11 08:45:31;;;;;;;41.60;22.35;;;0.50;99.90;;;;;;5028315;28;20047;-72
2022/01/11 08:47:57;;;;;;;37.70;22.38;;;0.60;99.90;;;;;;5027079;28;20048;-71
2022/01/11 08:50:22;;;;;;;34.08;20.88;;;0.70;99.90;;;;;;5028130;28;20052;-72
2022/01/11 08:52:49;;;;;;;37.45;22.70;;;0.70;99.90;;;;;;5030917;28;20052;-72
2022/01/11 08:55:16;;;;;;;39.08;22.70;;;0.70;99.90;;;;;;5027955;28;20095;-72
2022/01/11 08:57:42;;;;;;;42.35;22.48;;;0.70;99.90;;;;;;5027448;28;20040;-72
2022/01/11 09:00:13;;;;;;;37.60;22.58;;;0.70;99.90;;;;;;5030384;28;20036;-72
2022/01/11 09:02:39;;;;;;;35.28;22.17;;;0.70;99.90;;;;;;5044878;28;20033;-72
2022/01/11 09:05:05;;;;;;;38.05;22.23;;;0.70;99.90;;;;;;5014808;28;20037;-72
2022/01/11 09:07:31;;;;;;;37.78;22.88;;;0.70;99.90;;;;;;5024321;28;20051;-71
2022/01/11 09:09:57;;;;;;;37.53;22.60;;;0.70;99.90;;;;;;5026748;28;20049;-71
2022/01/11 09:12:22;;;;;;;36.95;21.45;;;0.70;99.90;;;;;;5045352;28;20044;-71
2022/01/11 09:14:48;;;;;;;38.78;22.83;;;0.70;99.90;;;;;;4998084;28;20033;-72
2022/01/11 09:17:14;;;;;;;35.15;22.58;;;0.70;99.90;;;;;;5013401;28;20035;-72
2022/01/11 09:19:40;;;;;;;44.97;23.48;;;0.70;99.90;;;;;;5045862;28;20041;-72
2022/01/11 09:22:06;;;;;;;40.97;23.25;;;0.70;99.90;;;;;;5026494;28;20025;-72
2022/01/11 09:24:34;;;;;;;39.10;22.42;;;0.70;99.90;;;;;;5027228;28;20043;-72
2022/01/11 09:27:03;;;;;;;39.88;22.48;;;0.80;99.90;;;;;;5028240;28;20048;-72
2022/01/11 09:29:31;;;;;;;38.47;23.50;;;0.80;99.90;;;;;;5026639;28;20040;-72
2022/01/11 09:31:57;;;;;;;38.13;22.88;;;0.90;99.90;;;;;;5025589;28;20044;-72
2022/01/11 09:34:23;;;;;;;40.67;24.27;;;0.90;99.90;;;;;;5044513;28;20032;-72
2022/01/11 09:36:50;;;;;;;41.38;23.77;;;0.90;99.90;;;;;;5024486;28;20037;-72
2022/01/11 09:39:15;;;;;;;40.20;22.42;;;0.90;99.90;;;;;;5024523;28;20064;-72
2022/01/11 09:41:41;;;;;;;37.55;22.48;;;0.90;99.90;;;;;;5029722;28;20068;-72
2022/01/11 09:44:07;;;;;;;38.47;22.83;;;1.00;99.90;;;;;;5031148;28;20079;-73
2022/01/11 09:46:34;;;;;;;34.25;22.23;;;1.00;99.90;;;;;;5025707;28;20041;-71
2022/01/11 09:49:00;;;;;;;41.30;23.08;;;1.00;99.90;;;;;;5028250;28;20438;-72
2022/01/11 09:51:26;;;;;;;38.72;22.58;;;1.00;99.90;;;;;;5026870;28;20028;-72
2022/01/11 09:53:51;;;;;;;36.17;22.10;;;1.00;99.90;;;;;;5025089;28;20480;-71
2022/01/11 09:56:17;;;;;;;38.13;22.83;;;1.10;99.90;;;;;;5027638;28;20082;-72
2022/01/11 09:58:45;;;;;;;35.92;21.23;;;1.10;99.90;;;;;;5027136;28;20530;-71
2022/01/11 10:01:11;;;;;;;36.38;22.65;;;1.10;99.90;;;;;;5026240;28;20480;-72
2022/01/11 10:04:04;;;;;;;37.25;22.13;;;1.10;99.90;;;;;;5027148;28;20037;-71
2022/01/11 10:06:32;;;;;;;36.38;21.00;;;1.10;99.90;;;;;;5027408;28;20044;-71
2022/01/11 10:09:18;;;;;;;34.33;21.70;;;1.10;99.90;;;;;;5023846;28;20053;-72
2022/01/11 10:11:47;;;;;;;36.47;21.70;;;1.20;99.90;;;;;;5044909;28;20049;-71
2022/01/11 10:14:22;;;;;;;34.97;21.40;;;1.20;99.90;;;;;;5025080;28;20052;-72
2022/01/11 10:16:50;;;;;;;36.13;21.75;;;1.20;99.90;;;;;;5023229;28;20153;-71
2022/01/11 10:19:34;;;;;;;35.03;22.33;;;1.20;99.90;;;;;;5022900;28;20037;-71
2022/01/11 10:22:03;;;;;;;36.72;22.27;;;1.20;99.90;;;;;;5023072;28;20072;-72
2022/01/11 10:24:41;;;;;;;35.35;22.27;;;1.20;99.90;;;;;;5022183;28;20030;-72
2022/01/11 10:27:33;;;;;;;34.67;22.00;;;1.30;99.90;;;;;;5027239;28;20052;-71
2022/01/11 10:30:06;;;;;;;37.03;21.15;;;1.30;99.90;;;;;;5039948;28;20045;-71
2022/01/11 10:32:51;;;;;;;40.78;22.83;;;1.30;99.90;;;;;;5026896;28;20079;-71
2022/01/11 10:35:23;;;;;;;36.22;22.20;;;1.40;99.90;;;;;;5042378;28;20048;-72
2022/01/11 10:37:55;;;;;;;29.25;16.30;;;1.40;99.90;;;;;;5026009;28;20033;-72
2022/01/11 10:40:35;;;;;;;36.05;21.63;;;1.40;99.90;;;;;;5046448;28;20076;-71
2022/01/11 10:43:05;;;;;;;32.83;21.50;;;1.40;99.90;;;;;;5026278;28;20037;-71
2022/01/11 10:45:39;;;;;;;33.05;21.52;;;1.50;99.90;;;;;;5022140;28;20060;-72
2022/01/11 10:48:10;;;;;;;37.80;22.42;;;1.50;99.90;;;;;;5023607;28;20625;-72
2022/01/11 10:50:37;;;;;;;35.92;22.60;;;1.60;99.90;;;;;;5011911;28;20166;-72
2022/01/11 10:53:19;;;;;;;39.72;22.08;;;1.70;99.90;;;;;;5023842;28;20106;-71
2022/01/11 10:55:49;;;;;;;32.05;20.67;;;1.80;99.90;;;;;;5008948;28;20036;-71
2022/01/11 10:58:15;;;;;;;36.90;21.33;;;1.90;99.90;;;;;;5028858;28;20468;-71
2022/01/11 11:00:42;;;;;;;35.90;21.55;;;1.90;99.90;;;;;;5031755;28;20033;-71
2022/01/11 11:03:21;;;;;;;34.17;21.35;;;2.00;99.90;;;;;;5015414;28;20554;-71
2022/01/11 11:05:58;;;;;;;34.30;20.83;;;2.00;99.90;;;;;;5031055;28;20039;-71
2022/01/11 11:08:34;;;;;;;34.85;20.80;;;2.10;99.90;;;;;;5038472;28;20094;-70
2022/01/11 11:11:03;;;;;;;34.97;20.92;;;2.20;99.90;;;;;;5033686;28;20124;-71
2022/01/11 11:13:32;;;;;;;33.20;20.98;;;2.30;99.90;;;;;;5034765;28;20041;-71
2022/01/11 11:16:20;;;;;;;40.20;22.23;;;2.40;99.90;;;;;;5053702;28;20115;-71
2022/01/11 11:19:07;;;;;;;35.60;20.50;;;2.60;99.90;;;;;;5014493;28;20037;-70
2022/01/11 11:21:37;;;;;;;32.50;20.10;;;2.80;99.90;;;;;;5054597;28;20041;-70
2022/01/11 11:24:13;;;;;;;35.30;20.10;;;2.80;99.90;;;;;;5055346;28;20036;-71
2022/01/11 11:26:46;;;;;;;34.10;20.30;;;3.00;99.90;;;;;;5038111;28;20071;-71
2022/01/11 11:29:13;;;;;;;33.80;18.45;;;3.00;99.90;;;;;;5018391;28;20036;-71
2022/01/11 11:31:39;;;;;;;33.63;20.63;;;3.10;99.90;;;;;;5037587;28;20368;-71
2022/01/11 11:34:08;;;;;;;30.73;19.30;;;3.10;99.90;;;;;;5048405;28;20049;-71
2022/01/11 11:36:36;;;;;;;32.70;20.13;;;3.10;99.90;;;;;;5035058;28;20045;-71
2022/01/11 11:39:17;;;;;;;35.50;19.13;;;3.10;99.90;;;;;;5027632;28;20044;-71
2022/01/11 11:41:48;;;;;;;30.73;18.95;;;3.10;99.90;;;;;;5053455;28;20040;-71
2022/01/11 11:44:24;;;;;;;37.03;19.38;;;3.10;99.90;;;;;;5031510;28;20756;-71
2022/01/11 11:46:53;;;;;;;32.17;19.35;;;3.10;99.90;;;;;;5031609;28;20064;-71
2022/01/11 11:49:44;;;;;;;34.58;18.23;;;3.20;99.90;;;;;;5031652;28;20128;-71
2022/01/11 11:52:20;;;;;;;27.08;17.35;;;3.30;99.90;;;;;;5032032;28;20120;-71
2022/01/11 11:54:55;;;;;;;28.17;17.23;;;3.50;99.90;;;;;;5027533;28;20377;-71
2022/01/11 11:57:23;;;;;;;29.70;17.55;;;3.60;99.90;;;;;;5033364;28;20525;-71
2022/01/11 12:00:03;;;;;;;30.13;18.40;;;3.70;99.90;;;;;;5029841;28;20075;-71
2022/01/11 12:02:39;;;;;;;31.02;18.30;;;3.80;99.90;;;;;;5047706;28;20033;-71
2022/01/11 12:05:09;;;;;;;28.17;16.58;;;3.90;99.90;;;;;;5030338;28;20120;-70
2022/01/11 12:07:40;;;;;;;30.42;17.17;;;4.00;99.90;;;;;;5032104;28;20052;-71
2022/01/11 12:10:11;;;;;;;29.15;17.35;;;4.10;99.90;;;;;;5030647;28;20127;-71
2022/01/11 12:12:49;;;;;;;28.00;17.08;;;4.30;99.90;;;;;;5026056;28;20860;-71
2022/01/11 12:15:21;;;;;;;28.08;17.17;;;4.40;99.90;;;;;;5028340;28;20040;-71
2022/01/11 12:17:56;;;;;;;29.42;17.85;;;4.60;99.90;;;;;;5047424;28;20396;-70
2022/01/11 12:20:46;;;;;;;31.10;17.75;;;4.70;99.90;;;;;;5029372;28;20055;-71
2022/01/11 12:23:20;;;;;;;30.60;17.45;;;4.90;99.90;;;;;;5015838;28;20052;-71
2022/01/11 12:25:50;;;;;;;32.63;17.90;;;5.10;99.90;;;;;;5031317;28;20037;-71
2022/01/11 12:28:19;;;;;;;28.98;17.42;;;5.30;99.90;;;;;;5044260;28;20037;-71
2022/01/11 12:30:44;;;;;;;28.40;16.60;;;5.50;99.90;;;;;;5032801;28;20372;-71
2022/01/11 12:33:25;;;;;;;28.02;15.98;;;5.70;99.90;;;;;;5032636;28;20067;-71
2022/01/11 12:36:03;;;;;;;28.73;17.27;;;5.80;99.90;;;;;;5033197;28;20494;-71
2022/01/11 12:38:36;;;;;;;28.10;16.83;;;5.90;99.90;;;;;;5046767;28;20045;-71